Time;durP1;ratioP1;P1;durP2;ratioP2;P2;SDS_P1;SDS_P2;PMS_P1;PMS_P2;Temp;Humidity;BMP_temperature;BMP_pressure;BME280_temperature;BME280_humidity;BME280_pressure;Samples;Min_cycle;Max_cycle;Signal;HPM_P1;HPM_P2
2021/01/24 00:02:27;;;;;;;0.40;0.40;;;;;;;-2.03;100.00;98075.66;4998527;28;20330;-77
2021/01/24 00:05:31;;;;;;;0.43;0.43;;;;;;;-2.03;100.00;98079.16;4997452;28;20075;-76
2021/01/24 00:08:34;;;;;;;0.30;0.30;;;;;;;-2.03;100.00;98087.31;4998463;28;20119;-77
2021/01/24 00:11:38;;;;;;;0.32;0.32;;;;;;;-2.06;100.00;98080.03;4997889;28;20952;-78
2021/01/24 00:14:41;;;;;;;0.63;0.63;;;;;;;-2.05;100.00;98073.38;4998175;28;20060;-77
2021/01/24 00:17:45;;;;;;;0.52;0.52;;;;;;;-2.09;100.00;98059.06;4997813;28;20052;-78
2021/01/24 00:20:48;;;;;;;0.55;0.55;;;;;;;-2.08;100.00;98074.22;4997186;28;20049;-77
2021/01/24 00:23:52;;;;;;;0.40;0.40;;;;;;;-2.12;100.00;98067.38;4976584;28;20053;-76
2021/01/24 00:26:56;;;;;;;0.20;0.20;;;;;;;-2.16;100.00;98067.47;4978690;28;20080;-75
2021/01/24 00:29:59;;;;;;;0.30;0.30;;;;;;;-2.17;100.00;98068.66;4976602;28;20811;-76
2021/01/24 00:33:03;;;;;;;0.40;0.40;;;;;;;-2.24;100.00;98071.59;4977415;28;20061;-76
2021/01/24 00:36:09;;;;;;;0.40;0.40;;;;;;;-2.25;100.00;98069.31;4977188;28;20044;-77
2021/01/24 00:39:13;;;;;;;0.20;0.20;;;;;;;-2.27;100.00;98067.00;4976539;28;20049;-76
2021/01/24 00:42:17;;;;;;;0.40;0.40;;;;;;;-2.30;100.00;98051.53;4978237;28;20062;-76
2021/01/24 00:45:38;;;;;;;0.28;0.28;;;;;;;-2.30;100.00;98056.97;4976644;28;20051;-76
2021/01/24 00:48:42;;;;;;;0.50;0.50;;;;;;;-2.32;100.00;98065.56;4978171;28;20275;-75
2021/01/24 00:51:45;;;;;;;0.40;0.40;;;;;;;-2.31;100.00;98072.56;4978165;28;20052;-77
2021/01/24 00:54:49;;;;;;;0.40;0.40;;;;;;;-2.27;100.00;98077.91;4977623;28;20060;-76
2021/01/24 00:57:52;;;;;;;0.30;0.30;;;;;;;-2.25;100.00;98075.50;4978647;28;20604;-76
2021/01/24 01:00:55;;;;;;;0.43;0.43;;;;;;;-2.27;100.00;98082.59;4978432;28;20701;-76
2021/01/24 01:03:59;;;;;;;0.40;0.40;;;;;;;-2.28;100.00;98079.09;4978100;28;20528;-76
2021/01/24 01:07:02;;;;;;;0.52;0.52;;;;;;;-2.26;100.00;98082.16;4977618;28;20049;-76
2021/01/24 01:10:06;;;;;;;0.30;0.30;;;;;;;-2.25;100.00;98072.78;4978245;28;20053;-77
2021/01/24 01:13:10;;;;;;;0.30;0.30;;;;;;;-2.18;100.00;98086.22;4977302;28;20061;-76
2021/01/24 01:16:13;;;;;;;0.40;0.40;;;;;;;-2.12;100.00;98084.47;4979896;28;20057;-76
2021/01/24 01:19:17;;;;;;;0.30;0.30;;;;;;;-2.11;100.00;98075.09;4981347;28;20577;-77
2021/01/24 01:22:20;;;;;;;0.32;0.32;;;;;;;-2.07;100.00;98075.75;4990375;28;20056;-75
2021/01/24 01:25:24;;;;;;;0.50;0.50;;;;;;;-2.06;100.00;98071.84;5000531;28;20524;-77
2021/01/24 01:28:27;;;;;;;0.32;0.32;;;;;;;-2.01;100.00;98075.97;5000188;28;20056;-76
2021/01/24 01:31:31;;;;;;;0.28;0.28;;;;;;;-1.98;100.00;98075.88;5001831;28;20180;-76
2021/01/24 01:34:34;;;;;;;0.40;0.40;;;;;;;-1.95;100.00;98069.53;5000747;28;20686;-77
2021/01/24 01:37:38;;;;;;;0.45;0.45;;;;;;;-1.92;100.00;98060.50;5001554;28;20056;-76
2021/01/24 01:40:41;;;;;;;0.40;0.40;;;;;;;-1.89;100.00;98065.09;5000002;28;20159;-75
2021/01/24 01:43:46;;;;;;;0.50;0.50;;;;;;;-1.82;100.00;98059.41;5000379;28;20986;-79
2021/01/24 01:46:54;;;;;;;0.40;0.40;;;;;;;-1.81;100.00;98055.50;5001965;28;20084;-74
2021/01/24 01:49:59;;;;;;;0.57;0.57;;;;;;;-1.76;100.00;98074.06;4999862;28;20048;-76
2021/01/24 01:53:03;;;;;;;0.30;0.30;;;;;;;-1.73;100.00;98067.72;5002716;28;20056;-75
2021/01/24 01:56:06;;;;;;;0.30;0.30;;;;;;;-1.70;100.00;98066.84;4999982;28;20048;-75
2021/01/24 01:59:10;;;;;;;0.40;0.40;;;;;;;-1.67;100.00;98076.13;4997577;28;20749;-74
2021/01/24 02:02:45;;;;;;;0.30;0.30;;;;;;;-1.63;100.00;98060.41;5000090;28;20080;-75
2021/01/24 02:06:07;;;;;;;0.40;0.40;;;;;;;-1.58;100.00;98063.34;5002440;28;20064;-75
2021/01/24 02:09:18;;;;;;;;;;;;;;;-1.54;100.00;98053.06;5000730;28;20170;-75
2021/01/24 02:12:30;;;;;;;0.10;0.10;;;;;;;-1.51;100.00;98045.97;5000182;28;19917;-74
2021/01/24 02:15:35;;;;;;;0.40;0.40;;;;;;;-1.49;100.00;98043.56;4999670;28;20298;-76
2021/01/24 02:18:42;;;;;;;0.40;0.40;;;;;;;-1.47;100.00;98045.88;4996506;28;20085;-77
2021/01/24 02:21:47;;;;;;;0.30;0.30;;;;;;;-1.45;100.00;98055.13;4996628;28;20394;-80
2021/01/24 02:25:13;;;;;;;0.30;0.30;;;;;;;-1.41;100.00;98044.09;4998305;28;20109;-79
2021/01/24 02:28:28;;;;;;;0.20;0.20;;;;;;;-1.42;100.00;98056.22;4992953;28;20129;-76
2021/01/24 02:31:33;;;;;;;0.30;0.30;;;;;;;-1.43;100.00;98051.97;4996362;28;20881;-76
2021/01/24 02:34:38;;;;;;;0.40;0.40;;;;;;;-1.46;100.00;98042.69;4999688;28;20052;-77
2021/01/24 02:37:43;;;;;;;0.45;0.45;;;;;;;-1.51;100.00;98035.06;4988901;28;20044;-76
2021/01/24 02:40:48;;;;;;;0.40;0.40;;;;;;;-1.57;100.00;98036.81;4990387;28;20048;-78
2021/01/24 02:43:52;;;;;;;0.30;0.30;;;;;;;-1.60;100.00;98027.53;4990077;28;20566;-78
2021/01/24 02:46:57;;;;;;;0.50;0.50;;;;;;;-1.63;100.00;98012.06;4989287;28;20049;-78
2021/01/24 02:50:02;;;;;;;0.40;0.40;;;;;;;-1.61;100.00;98017.06;4991596;28;20065;-78
2021/01/24 02:53:06;;;;;;;0.43;0.43;;;;;;;-1.60;100.00;98021.31;4988780;28;20052;-78
2021/01/24 02:56:10;;;;;;;0.25;0.25;;;;;;;-1.60;100.00;98027.53;4990367;28;20108;-77
2021/01/24 02:59:15;;;;;;;0.40;0.40;;;;;;;-1.59;100.00;98020.88;4989484;28;20646;-78
2021/01/24 03:02:19;;;;;;;0.45;0.45;;;;;;;-1.58;100.00;98022.41;4989036;28;20775;-77
2021/01/24 03:05:23;;;;;;;0.20;0.20;;;;;;;-1.56;100.00;98025.44;4990227;28;20060;-77
2021/01/24 03:08:27;;;;;;;0.10;0.10;;;;;;;-1.56;100.00;98028.19;4993128;28;20052;-78
2021/01/24 03:11:33;;;;;;;0.32;0.32;;;;;;;-1.59;100.00;98029.06;4992286;28;20648;-78
2021/01/24 03:14:38;;;;;;;0.40;0.40;;;;;;;-1.62;100.00;98032.66;4990055;28;20107;-78
2021/01/24 03:17:44;;;;;;;0.30;0.30;;;;;;;-1.64;100.00;98026.88;4993492;28;20064;-78
2021/01/24 03:20:50;;;;;;;0.40;0.40;;;;;;;-1.68;100.00;98028.19;4993900;28;20068;-81
2021/01/24 03:23:54;;;;;;;0.40;0.40;;;;;;;-1.71;100.00;98027.09;4975939;28;20041;-80
2021/01/24 03:26:58;;;;;;;0.40;0.40;;;;;;;-1.71;100.00;98031.81;4974434;28;20053;-78
2021/01/24 03:30:03;;;;;;;0.38;0.38;;;;;;;-1.72;100.00;98031.06;4974264;28;20053;-78
2021/01/24 03:33:07;;;;;;;0.60;0.60;;;;;;;-1.71;100.00;98038.00;4974795;28;20073;-80
2021/01/24 03:36:11;;;;;;;0.40;0.40;;;;;;;-1.73;100.00;98045.88;4975214;28;20167;-80
2021/01/24 03:39:15;;;;;;;0.38;0.38;;;;;;;-1.77;100.00;98039.00;4974523;28;20076;-78
2021/01/24 03:42:18;;;;;;;0.43;0.43;;;;;;;-1.82;100.00;98048.50;4984907;28;20057;-77
2021/01/24 03:45:22;;;;;;;0.30;0.30;;;;;;;-1.82;100.00;98037.59;4975211;28;20052;-77
2021/01/24 03:48:26;;;;;;;0.50;0.50;;;;;;;-1.83;100.00;98041.53;5005186;28;20053;-80
2021/01/24 03:51:29;;;;;;;0.40;0.40;;;;;;;-1.84;100.00;98028.34;5012842;28;20407;-78
2021/01/24 03:54:32;;;;;;;0.40;0.40;;;;;;;-1.86;100.00;98030.72;5012391;28;20056;-78
2021/01/24 03:57:36;;;;;;;0.30;0.30;;;;;;;-1.91;100.00;98023.84;5012673;28;20073;-78
2021/01/24 04:00:39;;;;;;;0.47;0.47;;;;;;;-1.92;100.00;98024.28;5012213;28;20053;-78
2021/01/24 04:03:42;;;;;;;0.20;0.20;;;;;;;-1.94;100.00;98024.72;5012921;28;20501;-79
2021/01/24 04:06:46;;;;;;;0.40;0.40;;;;;;;-1.94;100.00;98018.50;5023373;28;20056;-78
2021/01/24 04:09:50;;;;;;;0.17;0.17;;;;;;;-1.93;100.00;98009.91;5011362;28;20406;-78
2021/01/24 04:12:53;;;;;;;0.22;0.22;;;;;;;-1.94;100.00;97997.44;5012622;28;20048;-77
2021/01/24 04:15:57;;;;;;;0.10;0.10;;;;;;;-1.93;100.00;97999.00;5012552;28;20057;-78
2021/01/24 04:19:00;;;;;;;0.20;0.20;;;;;;;-1.91;100.00;97991.13;5012323;28;20068;-80
2021/01/24 04:22:03;;;;;;;0.40;0.40;;;;;;;-1.90;100.00;97991.88;5018911;28;20052;-77
2021/01/24 04:25:11;;;;;;;0.32;0.32;;;;;;;-1.90;100.00;97992.63;5031520;28;20052;-79
2021/01/24 04:28:14;;;;;;;0.25;0.25;;;;;;;-1.89;100.00;97983.28;5031718;28;20064;-79
2021/01/24 04:31:18;;;;;;;0.45;0.45;;;;;;;-1.88;100.00;97973.88;5032016;28;20072;-78
2021/01/24 04:34:24;;;;;;;0.30;0.30;;;;;;;-1.86;100.00;97976.91;5031783;28;20056;-79
2021/01/24 04:37:28;;;;;;;0.30;0.30;;;;;;;-1.83;100.00;97973.31;5032065;28;20057;-77
2021/01/24 04:40:31;;;;;;;0.10;0.10;;;;;;;-1.83;100.00;97970.59;5031615;28;20052;-79
2021/01/24 04:43:34;;;;;;;0.50;0.50;;;;;;;-1.83;100.00;97973.31;5031856;28;20076;-79
2021/01/24 04:46:40;;;;;;;0.20;0.20;;;;;;;-1.84;100.00;97968.31;5031911;28;20536;-79
2021/01/24 04:49:43;;;;;;;0.43;0.43;;;;;;;-1.83;100.00;97969.84;5031120;28;20516;-79
2021/01/24 04:52:47;;;;;;;0.30;0.30;;;;;;;-1.84;100.00;97974.53;5036294;28;20061;-80
2021/01/24 04:55:51;;;;;;;0.50;0.50;;;;;;;-1.88;100.00;97976.59;5035571;28;20080;-79
2021/01/24 04:58:54;;;;;;;0.40;0.40;;;;;;;-1.89;100.00;97980.53;5035021;28;20060;-80
2021/01/24 05:01:59;;;;;;;0.52;0.52;;;;;;;-1.93;100.00;97966.25;5036059;28;20052;-80
2021/01/24 05:05:03;;;;;;;0.20;0.20;;;;;;;-1.93;100.00;97966.25;5035176;28;20048;-80
2021/01/24 05:08:12;;;;;;;0.35;0.35;;;;;;;-1.93;100.00;97958.06;5035902;28;20533;-80
2021/01/24 05:11:16;;;;;;;0.32;0.32;;;;;;;-1.94;100.00;97948.34;5035238;28;20056;-79
2021/01/24 05:14:28;;;;;;;0.38;0.38;;;;;;;-1.93;100.00;97930.81;5034476;28;20068;-80
2021/01/24 05:17:34;;;;;;;0.35;0.35;;;;;;;-1.90;100.00;97937.31;5035445;28;20052;-80
2021/01/24 05:20:42;;;;;;;0.38;0.38;;;;;;;-1.83;100.00;97916.03;5035397;28;20077;-79
2021/01/24 05:23:50;;;;;;;0.30;0.30;;;;;;;-1.73;100.00;97942.19;5014766;28;20408;-80
2021/01/24 05:26:54;;;;;;;0.20;0.20;;;;;;;-1.70;100.00;97938.59;5015440;28;20414;-79
2021/01/24 05:30:00;;;;;;;0.22;0.22;;;;;;;-1.65;100.00;97932.59;5015485;28;20044;-80
2021/01/24 05:33:03;;;;;;;0.43;0.43;;;;;;;-1.65;100.00;97926.38;5015639;28;20109;-79
2021/01/24 05:36:06;;;;;;;0.20;0.20;;;;;;;-1.64;100.00;97925.16;5015631;28;20394;-79
2021/01/24 05:39:10;;;;;;;0.35;0.35;;;;;;;-1.63;100.00;97897.44;5015469;28;20421;-80
2021/01/24 05:42:17;;;;;;;0.40;0.40;;;;;;;-1.61;100.00;97911.41;5015454;28;20434;-79
2021/01/24 05:45:20;;;;;;;0.40;0.40;;;;;;;-1.60;100.00;97909.41;5014150;28;20053;-79
2021/01/24 05:48:23;;;;;;;0.15;0.15;;;;;;;-1.59;100.00;97919.91;5015181;28;20512;-79
2021/01/24 05:51:27;;;;;;;0.40;0.40;;;;;;;-1.57;100.00;97911.28;5014303;28;20057;-78
2021/01/24 05:54:41;;;;;;;0.40;0.40;;;;;;;-1.55;100.00;97919.78;5014997;28;20052;-79
2021/01/24 05:57:44;;;;;;;0.20;0.20;;;;;;;-1.56;100.00;97924.47;5015940;28;20065;-78
2021/01/24 06:00:49;;;;;;;0.25;0.25;;;;;;;-1.54;100.00;97911.16;5017994;28;20422;-79
2021/01/24 06:03:54;;;;;;;0.47;0.47;;;;;;;-1.52;100.00;97908.72;5014055;28;20114;-80
2021/01/24 06:06:58;;;;;;;0.50;0.50;;;;;;;-1.49;100.00;97900.91;5014490;28;20509;-79
2021/01/24 06:10:02;;;;;;;0.47;0.47;;;;;;;-1.52;100.00;97897.81;5014997;28;20053;-80
2021/01/24 06:13:08;;;;;;;0.10;0.10;;;;;;;-1.52;100.00;97897.06;5025344;28;20531;-80
2021/01/24 06:16:22;;;;;;;0.43;0.43;;;;;;;-1.59;100.00;97892.63;5014566;28;20060;-79
2021/01/24 06:19:38;;;;;;;0.20;0.20;;;;;;;-1.64;100.00;97890.44;5014019;28;20505;-80
2021/01/24 06:22:56;;;;;;;0.50;0.50;;;;;;;-1.67;100.00;97890.59;5028333;28;20517;-79
2021/01/24 06:26:07;;;;;;;0.38;0.38;;;;;;;-1.74;100.00;97891.59;5031818;28;20065;-79
2021/01/24 06:29:12;;;;;;;0.32;0.32;;;;;;;-1.79;100.00;97886.69;5033757;28;20056;-79
2021/01/24 06:32:24;;;;;;;0.30;0.30;;;;;;;-1.83;100.00;97877.84;5032398;28;20060;-80
2021/01/24 06:35:27;;;;;;;0.32;0.32;;;;;;;-1.88;100.00;97886.59;5033510;28;20116;-79
2021/01/24 06:38:32;;;;;;;0.40;0.40;;;;;;;-1.93;100.00;97881.72;5033136;28;20052;-79
2021/01/24 06:41:44;;;;;;;0.30;0.30;;;;;;;-2.01;100.00;97877.66;5033293;28;20056;-80
2021/01/24 06:44:47;;;;;;;;;;;;;;;-2.07;100.00;97878.66;5033925;28;20052;-79
2021/01/24 06:47:52;;;;;;;0.47;0.47;;;;;;;-2.15;100.00;97883.59;5029991;28;19929;-79
2021/01/24 06:50:55;;;;;;;0.40;0.40;;;;;;;-2.24;100.00;97869.88;5027546;28;20045;-79
2021/01/24 06:54:00;;;;;;;0.50;0.50;;;;;;;-2.28;100.00;97880.13;5030553;28;20065;-80
2021/01/24 06:57:08;;;;;;;0.40;0.40;;;;;;;-2.32;100.00;97874.03;5028900;28;20301;-80
2021/01/24 07:00:20;;;;;;;0.40;0.40;;;;;;;-2.34;100.00;97887.34;5033233;28;20056;-78
2021/01/24 07:03:24;;;;;;;0.10;0.10;;;;;;;-2.38;100.00;97881.22;5032295;28;20071;-80
2021/01/24 07:06:34;;;;;;;0.45;0.45;;;;;;;-2.39;100.00;97879.69;5032346;28;20049;-80
2021/01/24 07:09:38;;;;;;;0.30;0.30;;;;;;;-2.42;100.00;97881.31;5033242;28;20057;-79
2021/01/24 07:12:44;;;;;;;0.30;0.30;;;;;;;-2.41;100.00;97879.38;5032848;28;20065;-80
2021/01/24 07:15:56;;;;;;;0.20;0.20;;;;;;;-2.42;100.00;97875.09;5033280;28;20052;-79
2021/01/24 07:18:59;;;;;;;0.60;0.60;;;;;;;-2.40;100.00;97875.44;5033552;28;20156;-80
2021/01/24 07:22:04;;;;;;;0.50;0.50;;;;;;;-2.42;100.00;97875.88;5032046;28;20505;-80
2021/01/24 07:25:08;;;;;;;0.38;0.38;;;;;;;-2.41;100.00;97869.25;5033747;28;20512;-79
2021/01/24 07:28:16;;;;;;;0.35;0.35;;;;;;;-2.40;100.00;97872.72;5033273;28;20052;-79
2021/01/24 07:31:19;;;;;;;0.30;0.30;;;;;;;-2.38;100.00;97881.22;5032970;28;20053;-81
2021/01/24 07:34:25;;;;;;;0.50;0.50;;;;;;;-2.34;100.00;97881.88;5032991;28;20072;-79
2021/01/24 07:37:29;;;;;;;0.30;0.30;;;;;;;-2.31;100.00;97879.03;5020765;28;20497;-80
2021/01/24 07:40:32;;;;;;;0.10;0.10;;;;;;;-2.26;100.00;97876.94;5013097;28;20509;-78
2021/01/24 07:43:36;;;;;;;0.50;0.50;;;;;;;-2.21;100.00;97874.47;5012868;28;20056;-79
2021/01/24 07:46:40;;;;;;;0.40;0.40;;;;;;;-2.18;100.00;97868.09;5019692;28;20052;-80
2021/01/24 07:49:43;;;;;;;0.40;0.40;;;;;;;-2.14;100.00;97882.38;5032791;28;20508;-79
2021/01/24 07:52:49;;;;;;;0.40;0.40;;;;;;;-2.10;100.00;97885.00;5032505;28;20057;-80
2021/01/24 07:55:53;;;;;;;0.30;0.30;;;;;;;-2.08;100.00;97879.88;5031969;28;20061;-80
2021/01/24 07:58:57;;;;;;;0.30;0.30;;;;;;;-2.04;100.00;97883.25;5033015;28;20068;-79
2021/01/24 08:02:02;;;;;;;0.40;0.40;;;;;;;-2.01;100.00;97880.41;5032814;28;20064;-79
2021/01/24 08:05:07;;;;;;;0.50;0.50;;;;;;;-2.01;100.00;97877.66;5032609;28;20060;-79
2021/01/24 08:08:11;;;;;;;0.40;0.40;;;;;;;-1.97;100.00;97875.59;5033082;28;20052;-84
2021/01/24 08:11:14;;;;;;;0.50;0.50;;;;;;;-1.95;100.00;97883.34;5032328;28;20050;-84
2021/01/24 08:14:18;;;;;;;0.40;0.40;;;;;;;-1.92;100.00;97879.72;5032372;28;20068;-82
2021/01/24 08:17:23;;;;;;;0.30;0.30;;;;;;;-1.89;100.00;97879.63;5032212;28;20516;-79
2021/01/24 08:20:28;;;;;;;0.10;0.10;;;;;;;-1.82;100.00;97892.25;5021980;28;20053;-81
2021/01/24 08:23:32;;;;;;;0.45;0.45;;;;;;;-1.74;100.00;97883.41;5020074;28;20056;-80
2021/01/24 08:26:36;;;;;;;0.30;0.30;;;;;;;-1.69;100.00;97882.09;5016182;28;20061;-79
2021/01/24 08:29:41;;;;;;;0.30;0.30;;;;;;;-1.56;100.00;97875.34;5010836;28;20053;-79
2021/01/24 08:32:45;;;;;;;0.10;0.10;;;;;;;-1.50;100.00;97874.78;5011684;28;20053;-79
2021/01/24 08:35:49;;;;;;;0.30;0.30;;;;;;;-1.46;100.00;97878.16;5012099;28;20061;-79
2021/01/24 08:38:57;;;;;;;0.45;0.45;;;;;;;-1.45;100.00;97868.78;5012212;28;20056;-79
2021/01/24 08:42:04;;;;;;;0.50;0.50;;;;;;;-1.44;100.00;97860.13;5011543;28;20064;-79
2021/01/24 08:45:09;;;;;;;0.20;0.20;;;;;;;-1.41;100.00;97861.22;5012243;28;20065;-79
2021/01/24 08:48:15;;;;;;;0.30;0.30;;;;;;;-1.39;100.00;97862.31;5012561;28;20045;-81
2021/01/24 08:51:18;;;;;;;0.32;0.32;;;;;;;-1.33;100.00;97865.22;5011964;28;20049;-80
2021/01/24 08:54:29;;;;;;;0.25;0.25;;;;;;;-1.26;100.00;97875.88;5011526;28;20053;-81
2021/01/24 08:57:33;;;;;;;0.38;0.38;;;;;;;-1.20;100.00;97880.34;5012911;28;20501;-81
2021/01/24 09:00:37;;;;;;;0.30;0.30;;;;;;;-1.16;100.00;97863.81;5012367;28;20502;-81
2021/01/24 09:03:40;;;;;;;0.38;0.38;;;;;;;-1.10;100.00;97862.03;5011901;28;20053;-81
2021/01/24 09:07:19;;;;;;;0.30;0.30;;;;;;;-1.04;100.00;97860.25;5012505;28;20057;-80
2021/01/24 09:10:28;;;;;;;0.25;0.25;;;;;;;-0.99;100.00;97862.41;5012412;28;20505;-81
2021/01/24 09:13:32;;;;;;;0.28;0.28;;;;;;;-0.93;100.00;97855.16;5012243;28;20057;-80
2021/01/24 09:16:35;;;;;;;0.30;0.30;;;;;;;-0.89;100.00;97839.41;4999996;28;20065;-79
2021/01/24 09:19:41;;;;;;;0.25;0.25;;;;;;;-0.84;100.00;97853.22;5011098;28;20053;-78
2021/01/24 09:22:44;;;;;;;0.40;0.40;;;;;;;-0.80;100.00;97853.09;5018469;28;20061;-79
2021/01/24 09:25:47;;;;;;;0.30;0.30;;;;;;;-0.76;100.00;97848.28;5031468;28;20068;-80
2021/01/24 09:28:51;;;;;;;0.40;0.40;;;;;;;-0.71;100.00;97861.34;5031872;28;20048;-79
2021/01/24 09:31:54;;;;;;;0.28;0.28;;;;;;;-0.59;100.00;97863.22;5031307;28;20052;-78
2021/01/24 09:34:57;;;;;;;0.20;0.20;;;;;;;-0.45;100.00;97868.13;5031618;28;20053;-80
2021/01/24 09:38:01;;;;;;;0.30;0.30;;;;;;;-0.35;100.00;97855.25;5034980;28;20052;-81
2021/01/24 09:41:04;;;;;;;0.20;0.20;;;;;;;-0.27;100.00;97870.94;5034714;28;20068;-81
2021/01/24 09:44:08;;;;;;;0.20;0.20;;;;;;;-0.26;100.00;97872.44;5034818;28;20401;-80
2021/01/24 09:47:11;;;;;;;0.30;0.30;;;;;;;-0.27;100.00;97865.47;5034095;28;20422;-79
2021/01/24 09:50:14;;;;;;;0.13;0.13;;;;;;;-0.25;100.00;97870.47;5034051;28;20505;-81
2021/01/24 09:53:17;;;;;;;0.20;0.20;;;;;;;-0.22;100.00;97864.84;5014666;28;20424;-81
2021/01/24 09:56:21;;;;;;;0.25;0.25;;;;;;;-0.23;100.00;97863.34;5014548;28;20521;-80
2021/01/24 09:59:24;;;;;;;0.30;0.30;;;;;;;-0.23;100.00;97874.28;5014722;28;20044;-80
2021/01/24 10:02:27;;;;;;;0.30;0.30;;;;;;;-0.25;100.00;97865.78;5017007;28;20044;-80
2021/01/24 10:05:31;;;;;;;0.22;0.22;;;;;;;-0.24;100.00;97878.22;5033861;28;20060;-80
2021/01/24 10:08:34;;;;;;;0.30;0.30;;;;;;;-0.21;100.00;97874.59;5044981;28;20048;-80
2021/01/24 10:11:37;;;;;;;0.30;0.30;;;;;;;-0.23;100.00;97863.34;5034555;28;20052;-79
2021/01/24 10:14:41;;;;;;;0.13;0.13;;;;;;;-0.21;100.00;97871.09;5045092;28;20049;-80
2021/01/24 10:17:45;;;;;;;0.30;0.30;;;;;;;-0.19;100.00;97880.38;5034277;28;20112;-79
2021/01/24 10:20:49;;;;;;;0.32;0.32;;;;;;;-0.18;100.00;97870.97;5034029;28;20041;-79
2021/01/24 10:23:52;;;;;;;0.30;0.30;;;;;;;-0.12;100.00;97880.09;5014794;28;20052;-79
2021/01/24 10:26:56;;;;;;;0.40;0.40;;;;;;;-0.07;100.00;97878.75;5014007;28;20056;-80
2021/01/24 10:29:59;;;;;;;0.20;0.20;;;;;;;-0.02;100.00;97884.38;5014517;28;20053;-80
2021/01/24 10:33:03;;;;;;;0.38;0.38;;;;;;;0.04;100.00;97875.56;5013861;28;20045;-81
2021/01/24 10:36:07;;;;;;;0.30;0.30;;;;;;;0.09;100.00;97878.44;5014247;28;20552;-80
2021/01/24 10:39:10;;;;;;;0.20;0.20;;;;;;;0.16;100.00;97878.16;5013714;28;20057;-81
2021/01/24 10:42:14;;;;;;;0.30;0.30;;;;;;;0.22;100.00;97864.66;5014171;28;20053;-80
2021/01/24 10:45:18;;;;;;;0.30;0.30;;;;;;;0.29;100.00;97858.88;5013951;28;20053;-80
2021/01/24 10:48:21;;;;;;;0.20;0.20;;;;;;;0.33;100.00;97849.28;5013306;28;20050;-79
2021/01/24 10:51:24;;;;;;;0.10;0.10;;;;;;;0.40;100.00;97859.19;5014243;28;20053;-80
2021/01/24 10:54:28;;;;;;;0.30;0.30;;;;;;;0.44;100.00;97854.31;5014382;28;20049;-80
2021/01/24 10:57:31;;;;;;;0.20;0.20;;;;;;;0.48;100.00;97857.66;5013180;28;20410;-80
2021/01/24 11:00:35;;;;;;;0.20;0.20;;;;;;;0.50;100.00;97852.47;5013993;28;20052;-79
2021/01/24 11:03:39;;;;;;;0.20;0.20;;;;;;;0.55;100.00;97860.09;5012276;28;20498;-77
2021/01/24 11:06:42;;;;;;;0.28;0.28;;;;;;;0.60;100.00;97845.81;5013534;28;20052;-77
2021/01/24 11:09:46;;;;;;;0.30;0.30;;;;;;;0.64;100.00;97843.66;5013465;28;20049;-78
2021/01/24 11:12:49;;;;;;;0.20;0.20;;;;;;;0.69;100.00;97832.09;5014982;28;20498;-78
2021/01/24 11:15:52;;;;;;;0.10;0.10;;;;;;;0.74;100.00;97831.47;5017088;28;20053;-78
2021/01/24 11:18:56;;;;;;;0.20;0.20;;;;;;;0.80;100.00;97837.88;5016017;28;20053;-78
2021/01/24 11:21:59;;;;;;;0.30;0.30;;;;;;;0.86;100.00;97825.06;5021770;28;20049;-78
2021/01/24 11:25:06;;;;;;;0.13;0.13;;;;;;;0.92;100.00;97839.66;5033620;28;20449;-79
2021/01/24 11:28:11;;;;;;;0.20;0.20;;;;;;;0.98;100.00;97837.81;5034532;28;20076;-79
2021/01/24 11:31:15;;;;;;;0.30;0.30;;;;;;;1.02;100.00;97838.41;5035258;28;20048;-79
2021/01/24 11:34:18;;;;;;;0.10;0.10;;;;;;;1.06;100.00;97843.75;5036305;28;20056;-79
2021/01/24 11:37:21;;;;;;;0.20;0.20;;;;;;;1.09;100.00;97843.59;5033521;28;20060;-79
2021/01/24 11:40:25;;;;;;;0.20;0.20;;;;;;;1.11;100.00;97835.66;5043460;28;20048;-79
2021/01/24 11:43:29;;;;;;;0.10;0.10;;;;;;;1.11;100.00;97841.13;5038840;28;20406;-78
2021/01/24 11:46:32;;;;;;;0.17;0.17;;;;;;;1.14;100.00;97828.50;5032870;28;20052;-79
2021/01/24 11:49:36;;;;;;;0.20;0.20;;;;;;;1.15;100.00;97830.78;5032900;28;20056;-79
2021/01/24 11:52:39;;;;;;;0.28;0.28;;;;;;;1.14;100.00;97826.53;5033209;28;20052;-79
2021/01/24 11:55:44;;;;;;;0.15;0.15;;;;;;;1.14;100.00;97833.97;5033216;28;20056;-79
2021/01/24 11:58:48;;;;;;;0.10;0.10;;;;;;;1.15;100.00;97835.50;5033246;28;20064;-80
2021/01/24 12:01:51;;;;;;;0.10;0.10;;;;;;;1.14;100.00;97842.22;5032126;28;20049;-79
2021/01/24 12:04:55;;;;;;;0.20;0.20;;;;;;;1.12;100.00;97831.72;5032349;28;20044;-79
2021/01/24 12:07:58;;;;;;;0.10;0.10;;;;;;;1.10;100.00;97828.69;5032668;28;20056;-80
2021/01/24 12:11:02;;;;;;;0.20;0.20;;;;;;;1.11;100.00;97834.88;5032243;28;20401;-79
2021/01/24 12:14:05;;;;;;;0.20;0.20;;;;;;;1.12;100.00;97836.44;5033954;28;20056;-80
2021/01/24 12:17:09;;;;;;;0.20;0.20;;;;;;;1.13;100.00;97846.16;5032330;28;20635;-79
2021/01/24 12:20:13;;;;;;;0.10;0.10;;;;;;;1.11;100.00;97838.41;5031722;28;20052;-80
2021/01/24 12:23:17;;;;;;;0.30;0.30;;;;;;;1.12;100.00;97842.66;5031458;28;20579;-79
2021/01/24 12:26:22;;;;;;;0.15;0.15;;;;;;;1.14;100.00;97833.97;5032394;28;20048;-79
2021/01/24 12:29:25;;;;;;;0.20;0.20;;;;;;;1.17;100.00;97828.31;5031680;28;20052;-79
2021/01/24 12:32:29;;;;;;;0.13;0.13;;;;;;;1.21;100.00;97828.91;5032294;28;20045;-79
2021/01/24 12:35:32;;;;;;;0.20;0.20;;;;;;;1.28;100.00;97823.13;5030960;28;20060;-79
2021/01/24 12:38:36;;;;;;;0.10;0.10;;;;;;;1.38;100.00;97826.59;5032147;28;20064;-78
2021/01/24 12:41:39;;;;;;;0.30;0.30;;;;;;;1.45;100.00;97824.25;5033877;28;20052;-79
2021/01/24 12:44:42;;;;;;;0.15;0.15;;;;;;;1.50;100.00;97826.38;5032872;28;20045;-79
2021/01/24 12:47:46;;;;;;;0.10;0.10;;;;;;;1.56;100.00;97831.25;5031936;28;20056;-78
2021/01/24 12:50:49;;;;;;;0.10;0.10;;;;;;;1.60;100.00;97826.34;5032196;28;20501;-78
2021/01/24 12:53:52;;;;;;;0.20;0.20;;;;;;;1.65;100.00;97828.44;5032091;28;20056;-79
2021/01/24 12:56:56;;;;;;;0.15;0.15;;;;;;;1.67;100.00;97826.00;5032336;28;20052;-79
2021/01/24 12:59:59;;;;;;;0.10;0.10;;;;;;;1.65;100.00;97823.72;5032505;28;20053;-80
2021/01/24 13:03:03;;;;;;;0.20;0.20;;;;;;;1.65;100.00;97817.47;5032054;28;20053;-79
2021/01/24 13:06:07;;;;;;;0.10;0.10;;;;;;;1.61;100.00;97816.88;5034322;28;20052;-79
2021/01/24 13:09:10;;;;;;;0.10;0.10;;;;;;;1.57;100.00;97811.56;5032232;28;20056;-80
2021/01/24 13:12:13;;;;;;;0.10;0.10;;;;;;;1.53;100.00;97806.25;5032708;28;20053;-80
2021/01/24 13:15:17;;;;;;;0.20;0.20;;;;;;;1.48;100.00;97804.16;5035553;28;20057;-79
2021/01/24 13:18:20;;;;;;;0.10;0.10;;;;;;;1.46;100.00;97806.59;5046739;28;20056;-80
2021/01/24 13:21:24;;;;;;;0.10;0.10;;;;;;;1.39;100.00;97801.44;5036514;28;20068;-79
2021/01/24 13:24:28;;;;;;;0.20;0.20;;;;;;;1.39;100.00;97806.94;5034810;28;20056;-80
2021/01/24 13:27:32;;;;;;;0.10;0.10;;;;;;;1.38;100.00;97805.41;5037377;28;20053;-80
2021/01/24 13:30:35;;;;;;;0.20;0.20;;;;;;;1.38;100.00;97815.63;5036099;28;20409;-78
2021/01/24 13:33:41;;;;;;;0.10;0.10;;;;;;;1.36;100.00;97813.34;5035942;28;20057;-79
2021/01/24 13:36:45;;;;;;;0.10;0.10;;;;;;;1.35;100.00;97814.56;5036159;28;20072;-78
2021/01/24 13:39:49;;;;;;;0.20;0.20;;;;;;;1.34;100.00;97815.78;5036270;28;20072;-78
2021/01/24 13:42:52;;;;;;;0.10;0.10;;;;;;;1.33;100.00;97811.53;5034993;28;20053;-78
2021/01/24 13:45:55;;;;;;;0.20;0.20;;;;;;;1.31;100.00;97816.72;5035302;28;20504;-78
2021/01/24 13:48:59;;;;;;;0.20;0.20;;;;;;;1.30;100.00;97817.94;5034675;28;20048;-78
2021/01/24 13:52:02;;;;;;;0.17;0.17;;;;;;;1.30;100.00;97809.69;5035565;28;20402;-78
2021/01/24 13:55:07;;;;;;;0.20;0.20;;;;;;;1.32;100.00;97812.00;5035487;28;20398;-78
2021/01/24 13:58:10;;;;;;;0.10;0.10;;;;;;;1.32;100.00;97807.25;5036122;28;20061;-77
2021/01/24 14:01:14;;;;;;;0.15;0.15;;;;;;;1.32;100.00;97807.25;5037805;28;20049;-78
2021/01/24 14:04:21;;;;;;;0.10;0.10;;;;;;;1.32;100.00;97801.78;5051879;28;20052;-78
2021/01/24 14:07:24;;;;;;;0.20;0.20;;;;;;;1.34;100.00;97799.31;5040192;28;20057;-77
2021/01/24 14:10:28;;;;;;;0.20;0.20;;;;;;;1.32;100.00;97804.50;5041040;28;20406;-78
2021/01/24 14:13:31;;;;;;;0.20;0.20;;;;;;;1.29;100.00;97804.69;5033659;28;20048;-78
2021/01/24 14:16:35;;;;;;;0.10;0.10;;;;;;;1.26;100.00;97813.81;5034685;28;20406;-78
2021/01/24 14:19:38;;;;;;;0.20;0.20;;;;;;;1.21;100.00;97807.00;5034963;28;20057;-78
2021/01/24 14:22:41;;;;;;;0.20;0.20;;;;;;;1.17;100.00;97811.88;5032746;28;20072;-78